Time;durP1;ratioP1;P1;durP2;ratioP2;P2;SDS_P1;SDS_P2;PMS_P1;PMS_P2;Temp;Humidity;BMP_temperature;BMP_pressure;BME280_temperature;BME280_humidity;BME280_pressure;Samples;Min_cycle;Max_cycle;Signal;HPM_P1;HPM_P2
2022/11/05 00:10:37;;;;;;;7.00;3.17;;;9.80;89.10;;;;;;5103602;27;20131;-64
2022/11/05 00:19:05;;;;;;;7.25;3.20;;;9.80;89.10;;;;;;5106920;27;20043;-59
2022/11/05 00:26:59;;;;;;;6.60;2.53;;;9.70;89.40;;;;;;5127379;27;20054;-72
2022/11/05 00:29:26;;;;;;;5.88;2.33;;;9.70;89.40;;;;;;5120872;27;20122;-70
2022/11/05 00:31:57;;;;;;;5.28;2.53;;;9.70;89.30;;;;;;5105052;27;20127;-62
2022/11/05 00:34:24;;;;;;;7.32;2.60;;;9.70;89.30;;;;;;5108761;27;20485;-61
2022/11/05 00:36:52;;;;;;;7.40;2.22;;;9.70;89.30;;;;;;5106849;27;20043;-69
2022/11/05 00:39:18;;;;;;;4.85;2.03;;;9.70;89.20;;;;;;5102935;27;20051;-70
2022/11/05 00:44:58;;;;;;;6.22;2.42;;;9.70;89.30;;;;;;5109379;27;20131;-70
2022/11/05 00:50:04;;;;;;;4.30;2.40;;;9.70;89.40;;;;;;5096276;27;20190;-67
2022/11/05 00:55:17;;;;;;;5.10;2.58;;;9.70;89.30;;;;;;5104655;27;20490;-63
2022/11/05 00:57:44;;;;;;;7.97;3.35;;;9.70;89.40;;;;;;5107117;27;20051;-66
2022/11/05 01:00:12;;;;;;;6.82;3.00;;;9.80;89.50;;;;;;5104396;27;20047;-64
2022/11/05 01:02:41;;;;;;;9.68;4.22;;;9.70;89.40;;;;;;5105871;27;20447;-64
2022/11/05 01:05:08;;;;;;;6.43;3.40;;;9.70;89.50;;;;;;5106911;27;20060;-65
2022/11/05 01:07:35;;;;;;;8.10;3.78;;;9.70;89.50;;;;;;5105379;27;20067;-66
2022/11/05 01:10:02;;;;;;;8.50;3.58;;;9.70;89.50;;;;;;5099196;27;20119;-65
2022/11/05 01:12:31;;;;;;;9.55;3.72;;;9.70;89.50;;;;;;5102410;27;20139;-61
2022/11/05 01:14:59;;;;;;;6.80;3.20;;;9.70;89.50;;;;;;5107372;27;20058;-62
2022/11/05 01:17:26;;;;;;;7.15;3.60;;;9.70;89.60;;;;;;5104033;27;20071;-61
2022/11/05 01:19:57;;;;;;;9.57;4.35;;;9.70;89.50;;;;;;5098534;27;20052;-62
2022/11/05 01:22:24;;;;;;;6.45;3.00;;;9.80;89.50;;;;;;5105175;27;20056;-62
2022/11/05 01:24:50;;;;;;;8.02;3.15;;;9.80;89.40;;;;;;5100878;27;20063;-62
2022/11/05 01:27:17;;;;;;;5.10;2.80;;;9.80;89.50;;;;;;5106072;27;20058;-59
2022/11/05 01:29:44;;;;;;;6.28;2.58;;;9.70;89.50;;;;;;5106126;27;20049;-59
2022/11/05 01:32:11;;;;;;;9.50;3.55;;;9.70;89.60;;;;;;5103997;27;20052;-62
2022/11/05 01:34:41;;;;;;;7.57;3.00;;;9.80;89.50;;;;;;5106255;27;20485;-61
2022/11/05 01:37:09;;;;;;;8.38;3.08;;;9.80;89.50;;;;;;5092916;27;20060;-60
2022/11/05 01:39:38;;;;;;;6.32;2.80;;;9.80;89.50;;;;;;5103183;27;20050;-61
2022/11/05 01:42:09;;;;;;;6.88;3.00;;;9.80;89.60;;;;;;5105684;27;20084;-64
2022/11/05 01:45:12;;;;;;;5.93;2.65;;;9.80;89.50;;;;;;5101482;27;20903;-65
2022/11/05 01:47:47;;;;;;;8.05;2.90;;;9.80;89.70;;;;;;5105303;27;20079;-64
2022/11/05 01:50:33;;;;;;;7.70;2.80;;;9.80;89.70;;;;;;5104448;27;20051;-64
2022/11/05 01:53:10;;;;;;;5.78;2.40;;;9.70;89.70;;;;;;5106085;27;20043;-63
2022/11/05 01:55:45;;;;;;;5.38;2.55;;;9.70;89.80;;;;;;5097881;27;20403;-64
2022/11/05 01:58:17;;;;;;;6.45;2.42;;;9.70;89.80;;;;;;5111426;27;20047;-63
2022/11/05 02:00:44;;;;;;;4.78;2.13;;;9.70;89.70;;;;;;5105550;27;20054;-64
2022/11/05 02:03:14;;;;;;;4.47;2.10;;;9.80;89.80;;;;;;5094602;27;20043;-66
2022/11/05 02:05:41;;;;;;;7.00;2.28;;;9.70;89.80;;;;;;5120114;27;20046;-63
2022/11/05 02:08:16;;;;;;;6.07;2.60;;;9.70;89.80;;;;;;5105761;27;20043;-64
2022/11/05 02:10:44;;;;;;;4.55;2.20;;;9.70;89.80;;;;;;5105893;27;20059;-64
2022/11/05 02:13:11;;;;;;;7.65;1.80;;;9.80;89.90;;;;;;5104580;27;20470;-62
2022/11/05 02:15:56;;;;;;;6.05;1.90;;;9.80;89.80;;;;;;5104416;27;20052;-60
2022/11/05 02:18:33;;;;;;;5.82;2.30;;;9.80;89.70;;;;;;5106369;27;20052;-62
2022/11/05 02:21:25;;;;;;;6.13;2.25;;;9.80;89.80;;;;;;5103405;27;20040;-71
2022/11/05 02:24:16;;;;;;;4.32;2.25;;;9.80;89.80;;;;;;5102262;27;20410;-71
2022/11/05 02:27:07;;;;;;;5.13;2.22;;;9.80;89.90;;;;;;5102259;27;20112;-61
2022/11/05 02:30:11;;;;;;;7.60;2.23;;;9.80;89.90;;;;;;5062992;27;20055;-62
2022/11/05 02:33:03;;;;;;;6.57;2.97;;;9.70;89.90;;;;;;5089165;27;23150;-62
2022/11/05 02:35:45;;;;;;;5.35;2.38;;;9.80;90.00;;;;;;5100466;27;20056;-70
2022/11/05 02:38:19;;;;;;;3.55;1.85;;;9.70;90.00;;;;;;5098534;27;20051;-69
2022/11/05 02:40:57;;;;;;;4.40;2.22;;;9.70;90.10;;;;;;5104528;27;20044;-60
2022/11/05 02:43:30;;;;;;;5.43;2.30;;;9.70;90.10;;;;;;5102515;27;20880;-61
2022/11/05 02:46:15;;;;;;;4.65;2.28;;;9.80;90.00;;;;;;5102661;27;20476;-64
2022/11/05 02:48:50;;;;;;;4.55;2.40;;;9.80;90.00;;;;;;5105450;27;20089;-64
2022/11/05 02:51:26;;;;;;;6.55;2.45;;;9.80;90.10;;;;;;5107865;27;20145;-64
2022/11/05 02:54:00;;;;;;;6.45;2.47;;;9.80;90.00;;;;;;5107796;27;20063;-67
2022/11/05 02:56:31;;;;;;;7.30;2.85;;;9.80;90.10;;;;;;5098523;27;20096;-61
2022/11/05 02:58:58;;;;;;;7.77;3.33;;;9.80;90.10;;;;;;5107441;27;20123;-62
2022/11/05 03:01:25;;;;;;;6.63;3.80;;;9.80;90.00;;;;;;5104132;27;20058;-61
2022/11/05 03:03:55;;;;;;;6.78;3.25;;;9.80;90.10;;;;;;5105060;27;20039;-61
2022/11/05 03:06:41;;;;;;;6.40;3.50;;;9.80;90.10;;;;;;5119080;27;20050;-66
2022/11/05 03:09:26;;;;;;;7.25;3.20;;;9.80;90.10;;;;;;5111880;27;20119;-65
2022/11/05 03:12:02;;;;;;;6.03;3.00;;;9.70;90.10;;;;;;5101376;27;20059;-66
2022/11/05 03:14:39;;;;;;;9.27;3.58;;;9.70;90.10;;;;;;5101795;27;20101;-64
2022/11/05 03:17:14;;;;;;;9.35;3.63;;;9.70;90.10;;;;;;5102634;27;20051;-59
2022/11/05 03:19:49;;;;;;;8.95;3.42;;;9.70;90.10;;;;;;5103863;27;20071;-59
2022/11/05 03:22:20;;;;;;;7.00;3.20;;;9.70;90.00;;;;;;5099925;28;20047;-61
2022/11/05 03:24:53;;;;;;;6.57;3.13;;;9.80;90.00;;;;;;5098859;27;20065;-60
2022/11/05 03:27:25;;;;;;;7.80;3.35;;;9.70;90.00;;;;;;5100759;27;20486;-63
2022/11/05 03:29:58;;;;;;;8.25;3.50;;;9.70;90.20;;;;;;5100755;27;20132;-63
2022/11/05 03:32:28;;;;;;;5.97;3.05;;;9.70;90.20;;;;;;5102271;27;20051;-68
2022/11/05 03:35:01;;;;;;;7.55;3.33;;;9.70;90.10;;;;;;5100456;27;20055;-69
2022/11/05 03:37:31;;;;;;;6.63;3.33;;;9.70;90.20;;;;;;5102762;27;20478;-60
2022/11/05 03:40:01;;;;;;;7.18;3.35;;;9.70;90.20;;;;;;5104267;27;20047;-62
2022/11/05 03:42:34;;;;;;;7.15;3.58;;;9.70;90.20;;;;;;5089122;27;20591;-65
2022/11/05 03:45:08;;;;;;;8.68;3.92;;;9.70;90.20;;;;;;5107284;27;20402;-65
2022/11/05 03:47:39;;;;;;;6.55;3.67;;;9.70;90.20;;;;;;5108980;27;20063;-59
2022/11/05 03:50:12;;;;;;;7.82;4.22;;;9.70;90.20;;;;;;5103513;27;20052;-60
2022/11/05 03:52:47;;;;;;;7.38;3.40;;;9.70;90.20;;;;;;5110405;27;20055;-59
2022/11/05 03:55:15;;;;;;;11.88;4.75;;;9.70;90.10;;;;;;5107038;27;20055;-60
2022/11/05 03:57:46;;;;;;;7.28;3.97;;;9.70;90.10;;;;;;5107760;27;20062;-60
2022/11/05 04:00:13;;;;;;;7.28;4.05;;;9.70;90.00;;;;;;5105030;27;20036;-60
2022/11/05 04:02:41;;;;;;;7.85;4.35;;;9.70;89.90;;;;;;5102562;27;20374;-60
2022/11/05 04:05:10;;;;;;;8.98;3.97;;;9.60;89.90;;;;;;5107840;27;20490;-58
2022/11/05 04:13:26;;;;;;;7.97;4.72;;;9.60;90.00;;;;;;5101685;27;20045;-61
2022/11/05 04:18:42;;;;;;;8.48;5.15;;;9.60;90.20;;;;;;5106764;27;20044;-70
2022/11/05 04:24:08;;;;;;;7.15;4.43;;;9.70;90.20;;;;;;5099784;27;20040;-64
2022/11/05 04:26:36;;;;;;;10.93;4.55;;;9.70;90.20;;;;;;5101569;27;20043;-59
2022/11/05 04:31:47;;;;;;;7.30;3.78;;;9.70;90.20;;;;;;5103741;27;20048;-62
2022/11/05 04:34:15;;;;;;;9.65;4.13;;;9.70;90.20;;;;;;5103543;27;20044;-63
2022/11/05 04:36:43;;;;;;;5.75;3.33;;;9.60;90.30;;;;;;5105512;27;20062;-69
2022/11/05 04:39:10;;;;;;;6.63;3.35;;;9.60;90.30;;;;;;5106804;27;20044;-69
2022/11/05 04:41:37;;;;;;;6.18;2.95;;;9.60;90.40;;;;;;5108415;27;20403;-63
2022/11/05 04:44:04;;;;;;;8.00;3.08;;;9.60;90.40;;;;;;5106699;27;20126;-64
2022/11/05 04:46:30;;;;;;;6.18;3.33;;;9.70;90.40;;;;;;5106880;27;20039;-70
2022/11/05 04:48:57;;;;;;;7.47;3.53;;;9.60;90.30;;;;;;5104703;27;20048;-70
2022/11/05 04:51:26;;;;;;;6.07;3.17;;;9.60;90.30;;;;;;5114138;27;20043;-61
2022/11/05 04:53:54;;;;;;;7.95;2.83;;;9.60;90.30;;;;;;5104564;27;20054;-61
2022/11/05 04:56:23;;;;;;;5.85;2.92;;;9.60;90.30;;;;;;5106980;27;20524;-61
2022/11/05 04:58:50;;;;;;;5.90;3.20;;;9.60;90.30;;;;;;5106161;27;20043;-61
2022/11/05 05:01:19;;;;;;;7.20;3.17;;;9.60;90.30;;;;;;5107109;27;20142;-59
2022/11/05 05:03:47;;;;;;;7.38;3.47;;;9.60;90.30;;;;;;5099847;27;20457;-60
2022/11/05 05:06:15;;;;;;;5.63;3.22;;;9.60;90.20;;;;;;5104481;27;20047;-70
2022/11/05 05:08:42;;;;;;;8.13;3.95;;;9.60;90.10;;;;;;5105134;27;20127;-68
2022/11/05 05:11:12;;;;;;;7.00;3.50;;;9.60;90.10;;;;;;5104289;27;20158;-70
2022/11/05 05:13:39;;;;;;;9.18;3.75;;;9.50;90.00;;;;;;5106141;27;20051;-69
2022/11/05 05:16:09;;;;;;;8.02;3.50;;;9.50;90.10;;;;;;5095987;27;20635;-70
2022/11/05 05:18:36;;;;;;;9.90;4.18;;;9.50;90.10;;;;;;5106149;27;20046;-69
2022/11/05 05:23:48;;;;;;;7.78;3.72;;;9.40;90.20;;;;;;5104149;27;20504;-64
2022/11/05 05:26:16;;;;;;;7.80;3.63;;;9.40;90.10;;;;;;5104810;27;20059;-61
2022/11/05 05:28:43;;;;;;;6.47;3.55;;;9.40;90.10;;;;;;5104898;27;20061;-63
2022/11/05 05:31:10;;;;;;;6.43;3.80;;;9.40;90.00;;;;;;5104671;27;20126;-63
2022/11/05 05:33:37;;;;;;;7.10;4.05;;;9.40;89.90;;;;;;5104050;27;20044;-63
2022/11/05 05:36:04;;;;;;;7.00;3.67;;;9.40;90.00;;;;;;5105495;27;20040;-65
2022/11/05 05:38:33;;;;;;;8.27;3.88;;;9.30;90.00;;;;;;5107084;27;20055;-61
2022/11/05 05:41:00;;;;;;;7.63;3.97;;;9.30;89.90;;;;;;5103422;27;20035;-60
2022/11/05 05:43:31;;;;;;;8.38;3.80;;;9.30;89.90;;;;;;5106047;27;20466;-59
2022/11/05 05:46:01;;;;;;;5.32;3.10;;;9.30;89.80;;;;;;5109320;27;20044;-65
2022/11/05 05:48:32;;;;;;;6.53;3.47;;;9.20;89.60;;;;;;5125014;27;20044;-66
2022/11/05 05:51:01;;;;;;;5.75;3.50;;;9.20;89.70;;;;;;5112215;27;20039;-59
2022/11/05 05:53:30;;;;;;;;;;;9.20;89.70;;;;;;5108203;27;20058;-61
2022/11/05 05:55:58;;;;;;;9.73;4.38;;;9.20;89.60;;;;;;5104830;27;19924;-61
2022/11/05 05:58:34;;;;;;;10.02;4.13;;;9.20;89.80;;;;;;5107706;27;20050;-59
2022/11/05 06:01:01;;;;;;;6.20;3.78;;;9.20;89.80;;;;;;5108745;27;20462;-65
2022/11/05 06:03:29;;;;;;;9.05;3.83;;;9.20;90.00;;;;;;5105490;27;20108;-65
2022/11/05 06:06:00;;;;;;;7.80;3.95;;;9.20;90.00;;;;;;5106430;27;20044;-64
2022/11/05 06:08:34;;;;;;;6.95;4.00;;;9.20;90.00;;;;;;5106870;27;20132;-64
2022/11/05 06:11:03;;;;;;;8.57;4.63;;;9.20;90.00;;;;;;5105512;27;20121;-61
2022/11/05 06:13:32;;;;;;;8.60;4.13;;;9.20;90.10;;;;;;5105322;27;20048;-60
2022/11/05 06:16:01;;;;;;;9.43;4.55;;;9.20;90.20;;;;;;5103651;28;20036;-61
2022/11/05 06:18:28;;;;;;;8.30;4.15;;;9.20;90.20;;;;;;5105295;27;20465;-61
2022/11/05 06:20:55;;;;;;;8.30;4.32;;;9.20;90.30;;;;;;5104760;27;20039;-63
2022/11/05 06:23:22;;;;;;;8.68;4.32;;;9.20;90.30;;;;;;5103832;27;20436;-62
2022/11/05 06:25:49;;;;;;;9.57;5.00;;;9.30;90.30;;;;;;5104348;27;20116;-68
2022/11/05 06:28:16;;;;;;;9.80;4.97;;;9.30;90.20;;;;;;5103637;27;20158;-71
2022/11/05 06:30:50;;;;;;;8.73;4.30;;;9.30;90.20;;;;;;5105140;27;20043;-62
2022/11/05 06:33:18;;;;;;;9.32;4.95;;;9.30;90.30;;;;;;5103831;27;20051;-61
2022/11/05 06:35:45;;;;;;;8.35;4.55;;;9.30;90.20;;;;;;5105756;27;20082;-62
2022/11/05 06:38:12;;;;;;;9.98;4.53;;;9.30;90.30;;;;;;5102712;27;20130;-61
2022/11/05 06:40:39;;;;;;;7.30;4.47;;;9.20;90.20;;;;;;5106267;27;20051;-62
2022/11/05 06:43:05;;;;;;;9.30;4.45;;;9.20;90.10;;;;;;5104048;27;20094;-63
2022/11/05 06:45:32;;;;;;;7.65;4.68;;;9.30;90.10;;;;;;5101850;27;20043;-70
2022/11/05 06:48:01;;;;;;;10.35;5.40;;;9.30;90.00;;;;;;5106413;27;20051;-70
2022/11/05 06:50:28;;;;;;;9.45;4.55;;;9.30;90.10;;;;;;5103135;27;20470;-69
2022/11/05 06:52:55;;;;;;;8.68;4.72;;;9.30;90.10;;;;;;5106785;27;20054;-69
2022/11/05 06:55:22;;;;;;;13.80;5.32;;;9.30;90.10;;;;;;5105004;27;20059;-62
2022/11/05 06:57:49;;;;;;;10.63;4.93;;;9.30;90.20;;;;;;5105895;27;20153;-62
2022/11/05 07:00:19;;;;;;;11.05;5.53;;;9.30;90.20;;;;;;5103086;27;20440;-61
2022/11/05 07:02:47;;;;;;;11.00;5.88;;;9.40;90.20;;;;;;5103127;27;20086;-72
2022/11/05 07:05:16;;;;;;;9.43;5.28;;;9.40;90.20;;;;;;5105742;27;20052;-71
2022/11/05 07:07:45;;;;;;;10.63;5.60;;;9.40;90.20;;;;;;5103673;27;20051;-72
2022/11/05 07:10:14;;;;;;;10.23;6.32;;;9.40;90.30;;;;;;5104251;27;20047;-71
2022/11/05 07:12:41;;;;;;;11.00;6.22;;;9.40;90.30;;;;;;5101874;27;20127;-70
2022/11/05 07:15:09;;;;;;;10.20;6.50;;;9.50;90.20;;;;;;5105761;27;20044;-72
2022/11/05 07:17:36;;;;;;;10.48;6.15;;;9.50;90.30;;;;;;5108275;27;20058;-69
2022/11/05 07:20:04;;;;;;;11.05;6.32;;;9.50;90.30;;;;;;5108764;27;20047;-72
2022/11/05 07:22:33;;;;;;;11.77;6.07;;;9.50;90.30;;;;;;5110269;27;20051;-64
2022/11/05 07:25:00;;;;;;;10.80;6.22;;;9.50;90.30;;;;;;5108347;27;20130;-67
2022/11/05 07:27:29;;;;;;;9.90;5.88;;;9.50;90.40;;;;;;5111918;27;20059;-62
2022/11/05 07:29:56;;;;;;;12.50;6.72;;;9.60;90.30;;;;;;5110837;27;20047;-65
2022/11/05 07:32:23;;;;;;;10.93;6.65;;;9.60;90.30;;;;;;5108508;27;20118;-61
2022/11/05 07:34:51;;;;;;;12.70;6.95;;;9.60;90.20;;;;;;5110388;27;20036;-61
2022/11/05 07:37:18;;;;;;;10.50;6.45;;;9.60;90.20;;;;;;5109399;27;20048;-62
2022/11/05 07:39:46;;;;;;;11.23;6.75;;;9.60;90.10;;;;;;5110047;27;20132;-62
2022/11/05 07:42:14;;;;;;;12.55;7.75;;;9.60;90.10;;;;;;5107401;27;20101;-62
2022/11/05 07:44:42;;;;;;;15.45;6.93;;;9.70;90.10;;;;;;5101493;27;20457;-62
2022/11/05 07:47:09;;;;;;;13.75;7.55;;;9.70;90.10;;;;;;5116698;27;20051;-70
2022/11/05 07:49:36;;;;;;;12.50;7.43;;;9.70;90.10;;;;;;5106367;27;20405;-71
2022/11/05 07:52:03;;;;;;;11.68;7.45;;;9.70;90.00;;;;;;5105204;27;20100;-61
2022/11/05 07:54:30;;;;;;;13.18;7.30;;;9.70;90.10;;;;;;5105910;27;20048;-61
2022/11/05 07:57:03;;;;;;;11.63;6.95;;;9.70;90.10;;;;;;5109033;27;20383;-61
2022/11/05 07:59:30;;;;;;;12.75;7.80;;;9.80;90.10;;;;;;5108558;27;20482;-61
2022/11/05 08:01:57;;;;;;;13.43;7.32;;;9.70;90.00;;;;;;5103836;27;20071;-62
2022/11/05 08:04:24;;;;;;;14.38;7.75;;;9.80;90.00;;;;;;5106980;27;20051;-62
2022/11/05 08:06:51;;;;;;;15.05;8.50;;;9.80;90.10;;;;;;5114329;27;20089;-61
2022/11/05 08:09:17;;;;;;;11.80;8.00;;;9.80;89.90;;;;;;5104314;27;20054;-61
2022/11/05 08:11:44;;;;;;;16.13;8.23;;;9.80;89.90;;;;;;5107848;27;20047;-70
2022/11/05 08:14:13;;;;;;;13.25;8.13;;;9.90;89.90;;;;;;5107273;27;20039;-69
2022/11/05 08:16:40;;;;;;;13.63;8.10;;;9.90;89.80;;;;;;5104742;27;20052;-64
2022/11/05 08:19:06;;;;;;;14.38;8.80;;;9.90;89.70;;;;;;5106432;27;20143;-65
2022/11/05 08:21:34;;;;;;;14.95;8.73;;;9.90;89.60;;;;;;5104551;27;20124;-76
2022/11/05 08:24:01;;;;;;;13.27;8.43;;;9.90;89.70;;;;;;5105791;27;20039;-69
2022/11/05 08:26:29;;;;;;;13.57;8.38;;;9.90;89.70;;;;;;5106079;27;20047;-65
2022/11/05 08:28:56;;;;;;;14.20;8.57;;;10.00;89.70;;;;;;5118066;27;20048;-64
2022/11/05 08:31:24;;;;;;;15.32;8.48;;;10.00;89.50;;;;;;5123185;27;20050;-65
2022/11/05 08:33:52;;;;;;;14.30;8.43;;;10.00;89.60;;;;;;5108073;27;20047;-65
2022/11/05 08:36:19;;;;;;;12.48;7.45;;;10.10;89.50;;;;;;5108180;27;20051;-59
2022/11/05 08:38:46;;;;;;;13.02;7.72;;;10.10;89.50;;;;;;5108015;27;20051;-60
2022/11/05 08:41:13;;;;;;;12.90;7.38;;;10.10;89.40;;;;;;5108093;27;20051;-63
2022/11/05 08:43:40;;;;;;;12.55;7.32;;;10.10;89.00;;;;;;5103965;27;20542;-63
2022/11/05 08:46:06;;;;;;;10.88;6.63;;;10.10;89.20;;;;;;5104149;27;20047;-71
2022/11/05 08:48:35;;;;;;;12.07;7.68;;;10.20;89.30;;;;;;5104590;27;20054;-69
2022/11/05 08:51:01;;;;;;;11.32;7.55;;;10.20;89.20;;;;;;5104145;27;20047;-69
2022/11/05 08:53:28;;;;;;;12.13;7.13;;;10.20;89.10;;;;;;5105361;27;20058;-69
2022/11/05 08:55:58;;;;;;;12.57;7.13;;;10.20;89.10;;;;;;5103938;27;20055;-69
2022/11/05 08:58:25;;;;;;;12.73;7.45;;;10.20;89.00;;;;;;5104649;27;20077;-69
2022/11/05 09:00:52;;;;;;;12.73;7.05;;;10.30;89.10;;;;;;5102450;27;20097;-61
2022/11/05 09:03:19;;;;;;;12.88;7.40;;;10.30;89.10;;;;;;5104529;27;20626;-60
2022/11/05 09:05:48;;;;;;;10.93;7.10;;;10.40;88.90;;;;;;5106245;27;20130;-61
2022/11/05 09:08:17;;;;;;;11.02;6.82;;;10.40;88.80;;;;;;5106594;27;20063;-62
2022/11/05 09:10:45;;;;;;;15.07;7.00;;;10.40;88.70;;;;;;5105637;27;20050;-61
2022/11/05 09:13:12;;;;;;;12.43;6.90;;;10.40;88.60;;;;;;5105756;27;20048;-62
2022/11/05 09:15:39;;;;;;;11.10;7.15;;;10.40;88.50;;;;;;5103499;27;20058;-60
2022/11/05 09:18:07;;;;;;;11.23;6.70;;;10.50;88.40;;;;;;5102609;27;20066;-61
2022/11/05 09:20:35;;;;;;;11.93;6.75;;;10.40;88.40;;;;;;5106326;27;20051;-60
2022/11/05 09:23:03;;;;;;;9.57;6.20;;;10.40;88.40;;;;;;5103777;27;20058;-61
2022/11/05 09:25:30;;;;;;;10.02;6.53;;;10.40;88.40;;;;;;5099096;27;20058;-62
2022/11/05 09:28:09;;;;;;;10.90;6.20;;;10.50;88.40;;;;;;5107415;27;20485;-61
2022/11/05 09:30:40;;;;;;;11.77;6.72;;;10.60;88.20;;;;;;5103863;27;20118;-61
2022/11/05 09:33:07;;;;;;;12.18;7.15;;;10.60;88.20;;;;;;5107067;27;20047;-61
2022/11/05 09:35:34;;;;;;;12.82;6.68;;;10.70;88.10;;;;;;5104272;27;20058;-60
2022/11/05 09:38:00;;;;;;;12.27;6.45;;;10.80;87.80;;;;;;5107510;27;20055;-62
2022/11/05 09:40:32;;;;;;;11.15;6.18;;;10.90;87.60;;;;;;5107230;27;20040;-61
2022/11/05 09:43:00;;;;;;;9.85;5.70;;;10.90;87.30;;;;;;5106582;27;20051;-60
2022/11/05 09:45:30;;;;;;;9.63;5.53;;;11.00;87.10;;;;;;5105821;27;20052;-60
2022/11/05 09:48:01;;;;;;;11.13;6.20;;;11.00;87.00;;;;;;5101565;27;20451;-61
2022/11/05 09:50:34;;;;;;;9.73;5.72;;;11.00;86.80;;;;;;5105210;27;20080;-61
2022/11/05 09:53:01;;;;;;;9.52;5.30;;;11.10;86.70;;;;;;5103982;27;20122;-60
2022/11/05 09:55:35;;;;;;;13.18;6.00;;;11.10;86.60;;;;;;5105591;27;20532;-61
2022/11/05 09:58:04;;;;;;;8.27;4.97;;;11.10;86.50;;;;;;5091623;27;20496;-62
2022/11/05 10:00:33;;;;;;;8.75;4.95;;;11.10;86.30;;;;;;5102725;27;20055;-61
2022/11/05 10:03:04;;;;;;;8.90;5.05;;;11.10;86.40;;;;;;5100874;27;20125;-62
2022/11/05 10:05:32;;;;;;;8.98;4.80;;;11.10;86.30;;;;;;5102046;27;20489;-62
2022/11/05 10:08:04;;;;;;;10.13;5.38;;;11.20;86.10;;;;;;5105367;27;20044;-62
2022/11/05 10:10:38;;;;;;;8.88;4.90;;;11.20;86.00;;;;;;5106062;27;20222;-61
2022/11/05 10:13:10;;;;;;;10.98;5.28;;;11.20;85.90;;;;;;5103646;27;20121;-62
2022/11/05 10:15:41;;;;;;;9.27;4.70;;;11.20;85.60;;;;;;5102930;27;20048;-61
2022/11/05 10:18:16;;;;;;;9.57;4.88;;;11.30;85.40;;;;;;5099673;27;20048;-62
2022/11/05 10:20:44;;;;;;;9.88;4.28;;;11.30;85.30;;;;;;5103305;27;20529;-60
2022/11/05 10:23:13;;;;;;;9.32;4.80;;;11.30;85.30;;;;;;5102437;27;20043;-61
2022/11/05 10:25:43;;;;;;;10.27;4.70;;;11.30;85.40;;;;;;5103614;27;20036;-61
2022/11/05 10:28:17;;;;;;;8.40;4.18;;;11.30;85.20;;;;;;5105797;27;20043;-63
2022/11/05 10:30:45;;;;;;;8.73;4.38;;;11.20;85.30;;;;;;5102682;27;20047;-62
2022/11/05 10:33:15;;;;;;;7.32;4.20;;;11.30;85.20;;;;;;5101277;27;20043;-63
2022/11/05 10:35:48;;;;;;;10.40;4.10;;;11.20;85.40;;;;;;5105325;27;20044;-63
2022/11/05 10:38:16;;;;;;;7.40;3.97;;;11.20;84.80;;;;;;5105972;27;20061;-60
2022/11/05 10:40:53;;;;;;;8.05;4.55;;;11.30;84.90;;;;;;5104099;27;20035;-61
2022/11/05 10:43:27;;;;;;;9.02;4.07;;;11.30;84.80;;;;;;5097744;27;20135;-62
2022/11/05 10:46:10;;;;;;;7.95;3.85;;;11.40;84.60;;;;;;5102874;27;20060;-61
2022/11/05 10:48:52;;;;;;;8.90;4.78;;;11.40;84.50;;;;;;5104378;27;20062;-62
2022/11/05 10:51:19;;;;;;;7.80;4.03;;;11.40;84.40;;;;;;5103220;27;20055;-62
2022/11/05 10:53:52;;;;;;;9.77;4.20;;;11.50;84.30;;;;;;5100382;27;20134;-62
2022/11/05 10:56:32;;;;;;;11.00;4.28;;;11.50;84.10;;;;;;5105147;27;20054;-60
2022/11/05 10:59:01;;;;;;;8.98;3.90;;;11.60;84.00;;;;;;5102388;27;20496;-63
2022/11/05 11:01:30;;;;;;;7.70;3.78;;;11.60;84.00;;;;;;5104898;27;20047;-62
2022/11/05 11:04:15;;;;;;;9.32;4.28;;;11.60;84.00;;;;;;5096603;27;20052;-61
2022/11/05 11:06:48;;;;;;;8.27;3.95;;;11.60;83.80;;;;;;5105795;27;20047;-65
2022/11/05 11:09:22;;;;;;;8.23;3.83;;;11.60;83.30;;;;;;5102219;27;20058;-67
2022/11/05 11:12:02;;;;;;;8.82;4.65;;;11.60;83.10;;;;;;5127200;27;20067;-62
2022/11/05 11:14:31;;;;;;;10.02;4.65;;;11.60;83.00;;;;;;5121541;27;20062;-61
2022/11/05 11:17:29;;;;;;;8.27;4.32;;;11.60;83.10;;;;;;5108305;27;20126;-62
2022/11/05 11:20:20;;;;;;;7.55;4.15;;;11.50;82.90;;;;;;5092826;27;20068;-62
2022/11/05 11:23:00;;;;;;;8.98;4.20;;;11.50;83.10;;;;;;5104511;27;20478;-62
2022/11/05 11:25:30;;;;;;;8.27;4.00;;;11.60;83.10;;;;;;5104754;27;20147;-62
2022/11/05 11:28:03;;;;;;;6.95;3.92;;;11.60;83.00;;;;;;5095976;28;20640;-62
2022/11/05 11:30:30;;;;;;;10.70;4.35;;;11.60;82.80;;;;;;5095349;27;20044;-62
2022/11/05 11:33:08;;;;;;;10.73;4.97;;;11.60;82.70;;;;;;5110419;28;20118;-61
2022/11/05 11:35:38;;;;;;;10.35;5.28;;;11.70;82.70;;;;;;5107441;27;20093;-61
2022/11/05 11:38:06;;;;;;;10.90;4.85;;;11.70;82.60;;;;;;5098824;27;20930;-60
2022/11/05 11:40:36;;;;;;;10.90;5.30;;;11.70;82.70;;;;;;5106063;27;20478;-61
2022/11/05 11:43:06;;;;;;;8.67;4.60;;;11.70;82.40;;;;;;5104745;27;20075;-61
2022/11/05 11:45:36;;;;;;;8.77;4.00;;;11.70;82.10;;;;;;5104160;27;20472;-61
2022/11/05 11:48:07;;;;;;;10.32;4.47;;;11.70;82.20;;;;;;5107544;27;23063;-61
2022/11/05 11:50:39;;;;;;;9.32;4.05;;;11.70;82.20;;;;;;5105433;27;20051;-61
2022/11/05 11:53:35;;;;;;;8.55;4.13;;;11.70;82.00;;;;;;5103981;27;20134;-61
2022/11/05 11:56:12;;;;;;;11.48;4.35;;;11.80;82.00;;;;;;5060499;27;20059;-62
2022/11/05 11:58:43;;;;;;;9.73;4.40;;;11.70;82.00;;;;;;5104504;27;20131;-62
2022/11/05 12:01:38;;;;;;;9.20;4.53;;;11.80;81.70;;;;;;5097661;27;20482;-62
2022/11/05 12:04:19;;;;;;;8.82;3.90;;;11.80;81.60;;;;;;5103919;27;20472;-63
2022/11/05 12:06:55;;;;;;;8.43;4.10;;;11.90;81.90;;;;;;5108913;27;20052;-62
2022/11/05 12:09:33;;;;;;;10.02;4.78;;;11.80;81.70;;;;;;5108561;27;20134;-62
2022/11/05 12:12:07;;;;;;;8.65;3.90;;;11.70;81.70;;;;;;5108313;27;20051;-61
2022/11/05 12:14:41;;;;;;;10.23;4.55;;;11.70;81.70;;;;;;5106021;27;20139;-62
2022/11/05 12:17:25;;;;;;;8.88;4.10;;;11.70;81.50;;;;;;5107704;27;20054;-62
2022/11/05 12:20:16;;;;;;;8.50;3.47;;;11.80;81.70;;;;;;5104243;27;20075;-61
2022/11/05 12:23:16;;;;;;;7.22;3.42;;;11.90;81.50;;;;;;5105149;27;20108;-61
2022/11/05 12:25:50;;;;;;;8.70;3.53;;;12.00;81.50;;;;;;5107417;27;20078;-62
2022/11/05 12:28:29;;;;;;;9.52;4.00;;;12.00;81.40;;;;;;5109324;27;20130;-61
2022/11/05 12:31:03;;;;;;;7.38;3.38;;;12.00;81.10;;;;;;5107134;27;20043;-61
2022/11/05 12:33:46;;;;;;;7.70;3.17;;;12.10;81.00;;;;;;5107570;27;20401;-62
2022/11/05 12:36:29;;;;;;;6.35;2.85;;;12.10;80.90;;;;;;5107659;27;20114;-61
2022/11/05 12:39:27;;;;;;;5.68;3.03;;;12.10;80.90;;;;;;5102837;27;20070;-62
2022/11/05 12:42:00;;;;;;;6.65;2.45;;;12.20;80.20;;;;;;5086181;27;20442;-61
2022/11/05 12:44:41;;;;;;;6.07;2.65;;;12.20;80.40;;;;;;5105496;27;20096;-62
2022/11/05 12:47:22;;;;;;;5.65;2.55;;;12.30;80.10;;;;;;5103400;27;20134;-62
2022/11/05 12:50:09;;;;;;;6.53;2.97;;;12.30;79.90;;;;;;5107004;27;20066;-61
2022/11/05 12:53:08;;;;;;;7.00;3.22;;;12.30;79.70;;;;;;5078514;28;20462;-61
2022/11/05 12:55:38;;;;;;;6.95;3.03;;;12.30;80.10;;;;;;5104970;27;20046;-62
2022/11/05 12:58:12;;;;;;;11.85;3.13;;;12.30;79.60;;;;;;5102518;27;20465;-63
2022/11/05 13:00:42;;;;;;;7.28;3.17;;;12.30;79.40;;;;;;5105792;27;20125;-62
2022/11/05 13:03:24;;;;;;;7.13;3.50;;;12.20;79.40;;;;;;5103413;27;20055;-62
2022/11/05 13:05:54;;;;;;;11.77;3.35;;;12.20;79.10;;;;;;5105900;27;20475;-62
2022/11/05 13:08:28;;;;;;;8.52;3.45;;;12.20;78.90;;;;;;5093447;27;20245;-61
2022/11/05 13:10:59;;;;;;;7.68;3.38;;;12.20;78.30;;;;;;5100260;27;20062;-62
2022/11/05 13:13:31;;;;;;;5.95;3.33;;;12.10;78.90;;;;;;5102123;27;20054;-62
2022/11/05 13:16:03;;;;;;;7.10;2.88;;;12.10;79.10;;;;;;5107173;27;20047;-62
2022/11/05 13:18:45;;;;;;;6.97;3.13;;;12.00;78.40;;;;;;5104999;27;20047;-62
2022/11/05 13:21:13;;;;;;;7.10;2.80;;;12.00;78.50;;;;;;5100230;27;20067;-62
2022/11/05 13:23:47;;;;;;;7.20;2.78;;;11.90;78.50;;;;;;5099305;27;20192;-62
2022/11/05 13:26:18;;;;;;;9.80;3.53;;;11.90;79.50;;;;;;5103505;27;20076;-62
2022/11/05 13:28:51;;;;;;;6.15;2.75;;;11.90;79.20;;;;;;5105174;27;20047;-61
2022/11/05 13:31:22;;;;;;;6.82;2.83;;;11.80;78.60;;;;;;5100598;27;20409;-61
2022/11/05 13:33:51;;;;;;;7.70;3.00;;;11.90;79.40;;;;;;5103680;27;20131;-62
2022/11/05 13:39:17;;;;;;;6.43;3.47;;;11.80;79.90;;;;;;5083600;28;20550;-62
2022/11/05 13:42:06;;;;;;;8.00;3.50;;;11.80;80.00;;;;;;5104147;27;20047;-61
2022/11/05 13:44:51;;;;;;;7.32;3.42;;;11.90;79.80;;;;;;5100056;27;20052;-62
2022/11/05 13:47:34;;;;;;;5.88;3.22;;;11.90;78.30;;;;;;5106818;27;20138;-62
2022/11/05 13:50:29;;;;;;;5.65;2.63;;;11.90;78.70;;;;;;5108035;27;20413;-61
2022/11/05 13:53:24;;;;;;;7.32;2.97;;;11.90;79.10;;;;;;5107433;27;20043;-61
2022/11/05 13:55:59;;;;;;;7.97;2.72;;;11.90;78.40;;;;;;5122883;27;20075;-62
2022/11/05 13:58:58;;;;;;;7.20;3.10;;;11.90;77.60;;;;;;5114154;27;20040;-61
2022/11/05 14:01:42;;;;;;;6.00;3.08;;;11.90;78.40;;;;;;5108633;27;20672;-61
2022/11/05 14:04:20;;;;;;;7.10;3.03;;;11.90;78.60;;;;;;5100155;27;20051;-61